Aviation Digital Data Service (ADDS)

Output produced by METARs form (0138 UTC 23 November 2017)
found at http://www.aviationweather.gov/adds/metars/
 
FCBB 230100Z 26002KT 9999 FEW010 22/21 Q1011 NOSIG
TAF FCBB 222300Z 2300/2406 24004KT 8000 SCT018 
     BECMG 2312/2314 SCT020 FEW030CB 
     TEMPO 2316/2320 TS 
     BECMG 2320/2322 SCT016
       
FCPP 230100Z 09001KT 8000 FEW010 24/22 Q1009 NOSIG
TAF FCPP 222300Z 2300/2324 20006KT 8000 FEW010 BKN020 
     BECMG 2311/2313 SCT015 FEW030CB 
     PROB30 
     TEMPO 2317/2321 TS 
     BECMG 2321/2323 SCT010